createdAt,value
2018-09-28T00:00:56.509Z,6.78
2018-09-28T00:03:25.261Z,6.05
2018-09-28T00:05:54.414Z,5.62
2018-09-28T00:08:23.133Z,5.95
2018-09-28T00:10:51.907Z,5.55
2018-09-28T00:13:20.716Z,6.53
2018-09-28T00:15:49.422Z,5.70
2018-09-28T00:18:18.126Z,6.85
2018-09-28T00:20:46.940Z,6.28
2018-09-28T00:23:15.705Z,6.37
2018-09-28T00:25:44.407Z,6.67
2018-09-28T00:28:13.194Z,5.87
2018-09-28T00:30:41.994Z,6.75
2018-09-28T00:33:10.729Z,5.70
2018-09-28T00:35:39.624Z,5.20
2018-09-28T00:38:08.443Z,5.25
2018-09-28T00:40:37.193Z,5.08
2018-09-28T00:43:05.887Z,5.42
2018-09-28T00:45:34.596Z,5.45
2018-09-28T00:48:03.305Z,5.30
2018-09-28T00:50:32.022Z,5.28
2018-09-28T00:53:00.766Z,5.87
2018-09-28T00:55:29.477Z,5.87
2018-09-28T00:57:58.211Z,6.62
2018-09-28T01:00:26.938Z,5.40
2018-09-28T01:02:55.726Z,4.78
2018-09-28T01:05:26.399Z,5.75
2018-09-28T01:07:55.247Z,4.65
2018-09-28T01:10:24.107Z,5.17
2018-09-28T01:12:56.637Z,4.50
2018-09-28T01:15:30.059Z,5.53
2018-09-28T01:18:02.415Z,5.42
2018-09-28T01:20:37.707Z,5.45
2018-09-28T01:23:11.699Z,5.20
2018-09-28T01:25:47.712Z,5.40
2018-09-28T01:28:22.808Z,4.95
2018-09-28T01:30:56.094Z,5.17
2018-09-28T01:33:28.138Z,4.90
2018-09-28T01:36:02.152Z,5.70
2018-09-28T01:38:43.400Z,5.25
2018-09-28T01:41:16.463Z,6.28
2018-09-28T01:43:49.264Z,5.55
2018-09-28T01:46:22.584Z,6.05
2018-09-28T01:48:56.001Z,5.00
2018-09-28T01:51:30.682Z,5.25
2018-09-28T01:54:04.585Z,5.42
2018-09-28T01:56:39.370Z,6.00
2018-09-28T01:59:12.906Z,4.50
2018-09-28T02:01:45.908Z,5.70
2018-09-28T02:04:19.201Z,4.62
2018-09-28T02:06:54.719Z,5.87
2018-09-28T02:09:27.558Z,5.35
2018-09-28T02:12:00.990Z,9.15
2018-09-28T02:14:33.769Z,7.62
2018-09-28T02:17:07.776Z,6.95
2018-09-28T02:19:40.845Z,5.62
2018-09-28T02:22:22.303Z,5.97
2018-09-28T02:24:54.971Z,4.72
2018-09-28T02:27:27.675Z,5.70
2018-09-28T02:30:00.384Z,5.67
2018-09-28T02:32:33.070Z,5.42
2018-09-28T02:35:06.937Z,5.78
2018-09-28T02:37:39.672Z,5.17
2018-09-28T02:40:13.869Z,5.20
2018-09-28T02:42:45.915Z,6.08
2018-09-28T02:45:18.621Z,5.65
2018-09-28T02:47:51.606Z,6.10
2018-09-28T02:50:24.112Z,6.15
2018-09-28T02:52:57.240Z,5.90
2018-09-28T02:55:29.193Z,5.08
2018-09-28T02:58:01.944Z,5.72
2018-09-28T03:00:34.434Z,5.60
2018-09-28T03:03:07.747Z,5.80
2018-09-28T03:05:41.881Z,5.15
2018-09-28T03:08:14.497Z,5.45
2018-09-28T03:10:48.166Z,5.58
2018-09-28T03:13:20.900Z,5.42
2018-09-28T03:15:53.555Z,6.37
2018-09-28T03:18:26.320Z,6.12
2018-09-28T03:20:57.848Z,5.90
2018-09-28T03:23:30.506Z,6.25
2018-09-28T03:26:03.360Z,5.80
2018-09-28T03:28:36.127Z,5.55
2018-09-28T03:31:09.612Z,5.50
2018-09-28T03:33:43.002Z,5.65
2018-09-28T03:36:16.589Z,5.95
2018-09-28T03:38:49.254Z,6.17
2018-09-28T03:41:21.863Z,5.70
2018-09-28T03:44:02.726Z,7.22
2018-09-28T03:46:35.438Z,6.80
2018-09-28T03:49:08.396Z,6.08
2018-09-28T03:51:41.693Z,6.62
2018-09-28T03:54:14.300Z,7.92
2018-09-28T03:56:46.837Z,6.55
2018-09-28T03:59:19.420Z,6.95
2018-09-28T04:01:52.161Z,6.30
2018-09-28T04:04:24.618Z,6.97
2018-09-28T04:06:57.632Z,5.90
2018-09-28T04:09:30.134Z,6.97
2018-09-28T04:12:02.917Z,6.58
2018-09-28T04:14:37.568Z,6.62
2018-09-28T04:17:11.342Z,6.30
2018-09-28T04:19:43.830Z,5.83
2018-09-28T04:22:16.050Z,5.67
2018-09-28T04:24:49.957Z,5.50
2018-09-28T04:27:23.625Z,5.50
2018-09-28T04:29:56.317Z,5.90
2018-09-28T04:32:29.036Z,5.97
2018-09-28T04:35:02.574Z,6.47
2018-09-28T04:37:35.288Z,6.50
2018-09-28T04:40:05.377Z,6.33
2018-09-28T04:42:37.939Z,6.53
2018-09-28T04:45:09.640Z,6.50
2018-09-28T04:47:41.213Z,5.80
2018-09-28T04:50:12.804Z,6.55
2018-09-28T04:52:46.833Z,6.70
2018-09-28T04:55:19.206Z,6.22
2018-09-28T04:57:51.245Z,6.58
2018-09-28T05:00:24.690Z,7.20
2018-09-28T05:02:58.477Z,7.12
2018-09-28T05:05:30.992Z,6.67
2018-09-28T05:08:03.730Z,6.40
2018-09-28T05:10:33.800Z,6.92
2018-09-28T05:13:05.312Z,7.83
2018-09-28T05:15:37.702Z,7.47
2018-09-28T05:18:06.585Z,7.92
2018-09-28T05:20:35.254Z,7.20
2018-09-28T05:23:03.961Z,7.45
2018-09-28T05:25:32.704Z,6.95
2018-09-28T05:28:01.469Z,8.00
2018-09-28T05:30:30.241Z,6.60
2018-09-28T05:32:59.405Z,6.50
2018-09-28T05:35:28.093Z,8.28
2018-09-28T05:37:56.773Z,7.55
2018-09-28T05:40:25.602Z,7.35
2018-09-28T05:42:54.744Z,7.50
2018-09-28T05:45:23.582Z,8.58
2018-09-28T05:47:52.692Z,8.20
2018-09-28T05:50:22.331Z,6.75
2018-09-28T05:52:51.207Z,8.33
2018-09-28T05:55:20.270Z,7.70
2018-09-28T05:57:51.698Z,7.83
2018-09-28T06:00:25.787Z,7.25
2018-09-28T06:02:59.746Z,8.90
2018-09-28T06:05:37.088Z,7.53
2018-09-28T06:08:05.909Z,7.10
2018-09-28T06:10:34.807Z,7.45
2018-09-28T06:13:03.606Z,8.03
2018-09-28T06:15:32.466Z,8.35
2018-09-28T06:18:01.287Z,7.22
2018-09-28T06:20:30.036Z,9.03
2018-09-28T06:22:58.880Z,7.60
2018-09-28T06:25:27.650Z,8.70
2018-09-28T06:27:56.957Z,8.25
2018-09-28T06:30:27.564Z,8.85
2018-09-28T06:32:56.405Z,10.70
2018-09-28T06:35:25.218Z,9.93
2018-09-28T06:37:54.414Z,8.10
2018-09-28T06:40:23.373Z,8.65
2018-09-28T06:42:52.156Z,9.60
2018-09-28T06:45:21.101Z,8.58
2018-09-28T06:47:49.950Z,8.68
2018-09-28T06:50:18.733Z,8.80
2018-09-28T06:52:47.588Z,9.60
2018-09-28T06:55:16.431Z,10.40
2018-09-28T06:57:49.296Z,11.18
2018-09-28T07:00:24.160Z,11.00
2018-09-28T07:03:17.914Z,10.78
2018-09-28T07:06:08.494Z,11.50
2018-09-28T07:08:39.425Z,13.78
2018-09-28T07:11:11.633Z,11.68
2018-09-28T07:13:41.795Z,12.90
2018-09-28T07:16:18.044Z,11.80
2018-09-28T07:18:54.267Z,10.95
2018-09-28T07:21:24.304Z,11.05
2018-09-28T07:24:02.035Z,11.00
2018-09-28T07:26:39.667Z,11.22
2018-09-28T07:29:12.886Z,11.10
2018-09-28T07:31:49.851Z,11.90
2018-09-28T07:34:19.927Z,13.98
2018-09-28T07:36:56.557Z,11.50
2018-09-28T07:39:34.373Z,11.97
2018-09-28T07:42:11.008Z,11.22
2018-09-28T07:44:42.067Z,12.90
2018-09-28T07:47:16.008Z,10.78
2018-09-28T07:49:51.757Z,10.98
2018-09-28T07:52:21.332Z,11.65
2018-09-28T07:54:55.817Z,12.05
2018-09-28T07:57:27.169Z,12.68
2018-09-28T07:59:57.821Z,11.20
2018-09-28T08:02:32.210Z,12.37
2018-09-28T08:05:09.701Z,11.88
2018-09-28T08:07:44.899Z,13.22
2018-09-28T08:10:23.637Z,12.85
2018-09-28T08:12:57.791Z,11.80
2018-09-28T08:15:27.730Z,12.13
2018-09-28T08:17:58.728Z,12.90
2018-09-28T08:20:34.361Z,11.12
2018-09-28T08:23:04.357Z,29.87
2018-09-28T08:25:35.186Z,13.62
2018-09-28T08:28:06.036Z,12.60
2018-09-28T08:30:42.088Z,12.58
2018-09-28T08:33:20.421Z,11.10
2018-09-28T08:36:09.697Z,11.87
2018-09-28T08:38:42.672Z,11.20
2018-09-28T08:41:23.652Z,11.93
2018-09-28T08:44:04.268Z,10.17
2018-09-28T08:46:51.311Z,11.10
2018-09-28T08:49:26.663Z,11.90
2018-09-28T08:51:56.138Z,11.47
2018-09-28T08:54:35.257Z,11.20
2018-09-28T08:57:12.121Z,11.20
2018-09-28T08:59:47.244Z,11.07
2018-09-28T09:02:29.381Z,11.40
2018-09-28T09:05:08.484Z,10.97
2018-09-28T09:07:46.435Z,10.93
2018-09-28T09:10:23.169Z,10.90
2018-09-28T09:13:01.541Z,11.10
2018-09-28T09:15:42.330Z,10.77
2018-09-28T09:18:17.979Z,9.13
2018-09-28T09:20:55.182Z,9.60
2018-09-28T09:23:38.887Z,9.83
2018-09-28T09:26:09.536Z,11.23
2018-09-28T09:28:41.195Z,8.70
2018-09-28T09:31:20.938Z,9.67
2018-09-28T09:33:58.150Z,9.07
2018-09-28T09:36:33.806Z,9.00
2018-09-28T09:39:18.514Z,9.30
2018-09-28T09:41:51.781Z,10.07
2018-09-28T09:44:28.700Z,9.23
2018-09-28T09:47:08.327Z,10.70
2018-09-28T09:49:43.744Z,9.40
2018-09-28T09:52:52.069Z,9.27
2018-09-28T09:55:32.293Z,10.77
2018-09-28T09:58:13.754Z,11.33
2018-09-28T10:00:51.188Z,9.20
2018-09-28T10:04:38.065Z,9.40
2018-09-28T10:07:07.242Z,11.27
2018-09-28T10:09:40.258Z,10.50
2018-09-28T10:12:13.840Z,11.50
2018-09-28T10:14:43.611Z,11.50
2018-09-28T10:17:14.195Z,12.77
2018-09-28T10:19:44.804Z,12.90
2018-09-28T10:22:13.918Z,12.83
2018-09-28T10:24:46.047Z,13.20
2018-09-28T10:27:15.021Z,12.77
2018-09-28T10:29:43.808Z,11.73
2018-09-28T10:32:12.701Z,12.43
2018-09-28T10:34:41.653Z,12.70
2018-09-28T10:37:10.463Z,11.53
2018-09-28T10:39:39.369Z,10.77
2018-09-28T10:42:08.402Z,11.63
2018-09-28T10:44:37.195Z,13.60
2018-09-28T10:47:06.116Z,12.90
2018-09-28T10:49:35.822Z,11.93
2018-09-28T10:52:04.766Z,13.03
2018-09-28T10:54:33.617Z,12.23
2018-09-28T10:57:02.537Z,12.60
2018-09-28T10:59:31.594Z,12.20
2018-09-28T11:02:00.880Z,12.47
2018-09-28T11:04:32.042Z,12.50
2018-09-28T11:07:01.053Z,12.77
2018-09-28T11:09:29.909Z,13.00
2018-09-28T11:11:58.989Z,12.97
2018-09-28T11:14:27.946Z,12.17
2018-09-28T11:16:56.729Z,11.50
2018-09-28T11:19:25.617Z,14.30
2018-09-28T11:21:54.517Z,12.70
2018-09-28T11:24:23.425Z,12.50
2018-09-28T11:26:52.277Z,11.13
2018-09-28T11:29:21.412Z,12.50
2018-09-28T11:31:50.421Z,11.57
2018-09-28T11:34:19.333Z,12.30
2018-09-28T11:36:48.266Z,13.50
2018-09-28T11:39:17.098Z,14.20
2018-09-28T11:41:49.998Z,11.03
2018-09-28T11:44:18.721Z,15.30
2018-09-28T11:46:47.457Z,13.63
2018-09-28T11:49:16.747Z,15.33
2018-09-28T11:51:45.557Z,14.27
2018-09-28T11:54:16.125Z,12.77
2018-09-28T11:56:45.016Z,10.70
2018-09-28T11:59:14.305Z,13.00
2018-09-28T12:01:43.164Z,14.43
2018-09-28T12:04:12.111Z,14.87
2018-09-28T12:06:40.946Z,14.87
2018-09-28T12:09:11.817Z,15.33
2018-09-28T12:11:40.645Z,12.03
2018-09-28T12:14:09.485Z,11.03
2018-09-28T12:16:38.985Z,13.53
2018-09-28T12:19:08.206Z,11.50
2018-09-28T12:21:37.074Z,10.90
2018-09-28T12:24:05.922Z,12.10
2018-09-28T12:26:34.765Z,9.97
2018-09-28T12:29:03.752Z,10.67
2018-09-28T12:31:33.152Z,11.90
2018-09-28T12:34:01.993Z,11.20
2018-09-28T12:36:30.909Z,13.00
2018-09-28T12:39:01.288Z,12.53
2018-09-28T12:41:30.248Z,14.87
2018-09-28T12:43:58.981Z,12.97
2018-09-28T12:46:27.805Z,14.33
2018-09-28T12:48:56.604Z,14.00
2018-09-28T12:51:25.476Z,10.40
2018-09-28T12:53:54.715Z,13.60
2018-09-28T12:56:23.744Z,10.83
2018-09-28T12:58:52.651Z,9.33
2018-09-28T13:01:21.598Z,10.97
2018-09-28T13:03:50.482Z,10.73
2018-09-28T13:06:21.257Z,9.40
2018-09-28T13:08:50.308Z,10.57
2018-09-28T13:11:19.301Z,11.37
2018-09-28T13:13:48.378Z,11.07
2018-09-28T13:16:17.307Z,10.47
2018-09-28T13:18:46.211Z,9.03
2018-09-28T13:21:16.321Z,11.80
2018-09-28T13:23:46.067Z,11.40
2018-09-28T13:26:14.943Z,10.73
2018-09-28T13:28:43.973Z,10.53
2018-09-28T13:31:12.844Z,10.43
2018-09-28T13:33:41.784Z,12.03
2018-09-28T13:36:10.681Z,10.03
2018-09-28T13:38:39.859Z,9.73
2018-09-28T13:41:08.414Z,11.07
2018-09-28T13:43:37.198Z,12.43
2018-09-28T13:46:06.331Z,9.30
2018-09-28T13:48:35.195Z,9.40
2018-09-28T13:51:04.184Z,8.77
2018-09-28T13:53:33.058Z,7.90
2018-09-28T13:56:04.426Z,10.80
2018-09-28T13:58:33.290Z,8.47
2018-09-28T14:01:02.270Z,9.50
2018-09-28T14:03:31.161Z,9.43
2018-09-28T14:06:00.004Z,7.80
2018-09-28T14:08:28.876Z,8.60
2018-09-28T14:10:57.933Z,8.27
2018-09-28T14:13:27.140Z,8.23
2018-09-28T14:15:55.989Z,7.47
2018-09-28T14:18:25.321Z,7.37
2018-09-28T14:20:54.220Z,7.30
2018-09-28T14:23:23.468Z,8.60
2018-09-28T14:25:52.561Z,7.47
2018-09-28T14:28:22.423Z,7.27
2018-09-28T14:30:51.546Z,7.77
2018-09-28T14:33:20.821Z,7.97
2018-09-28T14:35:49.980Z,7.37
2018-09-28T14:38:19.216Z,7.27
2018-09-28T14:40:48.072Z,7.37
2018-09-28T14:43:17.118Z,4.97
2018-09-28T14:45:46.073Z,6.60
2018-09-28T14:48:16.164Z,6.10
2018-09-28T14:50:45.383Z,9.40
2018-09-28T14:53:14.938Z,8.63
2018-09-28T14:55:44.165Z,7.43
2018-09-28T14:58:13.399Z,6.47
2018-09-28T15:00:42.413Z,8.13
2018-09-28T15:03:15.333Z,5.60
2018-09-28T15:05:44.253Z,7.13
2018-09-28T15:08:13.664Z,5.83
2018-09-28T15:10:42.826Z,5.93
2018-09-28T15:13:11.564Z,5.00
2018-09-28T15:15:40.596Z,6.43
2018-09-28T15:18:09.350Z,4.47
2018-09-28T15:20:38.356Z,5.17
2018-09-28T15:23:07.468Z,5.30
2018-09-28T15:25:39.217Z,9.60
2018-09-28T15:28:12.625Z,5.80
2018-09-28T15:30:41.725Z,5.10
2018-09-28T15:33:18.340Z,5.70
2018-09-28T15:35:47.488Z,5.17
2018-09-28T15:38:16.552Z,5.77
2018-09-28T15:40:51.533Z,6.43
2018-09-28T15:43:20.332Z,5.30
2018-09-28T15:45:49.396Z,5.87
2018-09-28T15:48:18.226Z,5.33
2018-09-28T15:50:47.305Z,5.73
2018-09-28T15:53:16.185Z,4.70
2018-09-28T15:55:45.293Z,5.43
2018-09-28T15:58:14.861Z,7.03
2018-09-28T16:00:44.173Z,7.03
2018-09-28T16:03:12.942Z,7.87
2018-09-28T16:05:41.863Z,6.40
2018-09-28T16:08:10.712Z,7.13
2018-09-28T16:10:43.053Z,7.70
2018-09-28T16:13:12.031Z,9.30
2018-09-28T16:15:40.899Z,8.07
2018-09-28T16:18:09.755Z,8.03
2018-09-28T16:20:38.554Z,8.70
2018-09-28T16:23:07.544Z,9.63
2018-09-28T16:25:36.435Z,10.83
2018-09-28T16:28:05.417Z,9.63
2018-09-28T16:30:34.275Z,9.07
2018-09-28T16:33:02.988Z,9.00
2018-09-28T16:35:32.095Z,7.97
2018-09-28T16:38:00.928Z,7.80
2018-09-28T16:40:29.644Z,7.13
2018-09-28T16:42:58.381Z,6.90
2018-09-28T16:45:27.643Z,6.60
2018-09-28T16:47:56.437Z,6.03
2018-09-28T16:50:25.190Z,5.43
2018-09-28T16:52:54.074Z,5.03
2018-09-28T16:55:23.099Z,6.00
2018-09-28T16:57:51.906Z,5.40
2018-09-28T17:00:20.659Z,4.80
2018-09-28T17:02:49.477Z,4.80
2018-09-28T17:05:18.211Z,4.63
2018-09-28T17:07:46.918Z,5.17
2018-09-28T17:10:15.717Z,5.00
2018-09-28T17:12:44.597Z,4.77
2018-09-28T17:15:13.397Z,4.20
2018-09-28T17:17:42.273Z,4.53
2018-09-28T17:20:11.062Z,4.20
2018-09-28T17:22:39.840Z,4.53
2018-09-28T17:25:08.687Z,4.50
2018-09-28T17:27:37.471Z,4.90
2018-09-28T17:30:06.491Z,4.63
2018-09-28T17:32:35.252Z,5.10
2018-09-28T17:35:04.209Z,5.45
2018-09-28T17:37:33.066Z,6.15
2018-09-28T17:40:01.878Z,5.03
2018-09-28T17:42:31.276Z,4.50
2018-09-28T17:45:00.093Z,4.57
2018-09-28T17:47:28.850Z,4.33
2018-09-28T17:49:57.605Z,5.00
2018-09-28T17:52:26.515Z,4.17
2018-09-28T17:54:55.312Z,5.00
2018-09-28T17:57:24.301Z,5.40
2018-09-28T17:59:53.047Z,5.15
2018-09-28T18:02:21.861Z,4.30
2018-09-28T18:04:50.653Z,5.33
2018-09-28T18:07:22.862Z,5.28
2018-09-28T18:09:51.723Z,6.08
2018-09-28T18:12:20.507Z,6.30
2018-09-28T18:14:49.261Z,6.90
2018-09-28T18:17:18.182Z,6.15
2018-09-28T18:19:46.978Z,6.12
2018-09-28T18:22:15.984Z,7.75
2018-09-28T18:24:44.709Z,6.40
2018-09-28T18:27:13.607Z,7.03
2018-09-28T18:29:42.354Z,7.28
2018-09-28T18:32:11.122Z,6.65
2018-09-28T18:34:39.914Z,6.67
2018-09-28T18:37:08.732Z,6.50
2018-09-28T18:39:37.480Z,6.87
2018-09-28T18:42:06.368Z,6.70
2018-09-28T18:44:35.284Z,6.70
2018-09-28T18:47:04.055Z,7.12
2018-09-28T18:49:32.830Z,7.65
2018-09-28T18:52:01.768Z,6.90
2018-09-28T18:54:30.481Z,7.42
2018-09-28T18:56:59.285Z,7.40
2018-09-28T18:59:28.074Z,6.75
2018-09-28T19:02:01.137Z,7.05
2018-09-28T19:04:29.956Z,6.97
2018-09-28T19:06:58.690Z,6.15
2018-09-28T19:09:27.453Z,6.30
2018-09-28T19:11:56.363Z,6.75
2018-09-28T19:14:25.059Z,6.83
2018-09-28T19:16:54.102Z,4.95
2018-09-28T19:19:22.846Z,5.62
2018-09-28T19:21:51.609Z,4.72
2018-09-28T19:24:20.573Z,4.35
2018-09-28T19:26:49.416Z,4.20
2018-09-28T19:29:18.200Z,4.10
2018-09-28T19:31:46.997Z,5.40
2018-09-28T19:34:15.747Z,4.72
2018-09-28T19:36:44.825Z,3.55
2018-09-28T19:39:13.631Z,3.83
2018-09-28T19:41:42.337Z,3.52
2018-09-28T19:44:11.266Z,3.87
2018-09-28T19:46:39.997Z,4.47
2018-09-28T19:49:09.011Z,3.30
2018-09-28T19:51:37.820Z,4.42
2018-09-28T19:54:06.724Z,3.50
2018-09-28T19:56:35.432Z,3.60
2018-09-28T19:59:04.303Z,3.87
2018-09-28T20:01:33.026Z,3.83
2018-09-28T20:04:06.319Z,3.65
2018-09-28T20:06:35.754Z,3.72
2018-09-28T20:09:06.786Z,3.22
2018-09-28T20:11:35.638Z,3.10
2018-09-28T20:14:04.541Z,3.55
2018-09-28T20:16:33.284Z,3.17
2018-09-28T20:19:02.094Z,3.40
2018-09-28T20:21:31.024Z,3.40
2018-09-28T20:24:00.303Z,3.33
2018-09-28T20:26:29.053Z,2.70
2018-09-28T20:28:57.768Z,3.08
2018-09-28T20:31:26.812Z,3.00
2018-09-28T20:33:55.627Z,2.90
2018-09-28T20:36:25.182Z,3.35
2018-09-28T20:38:54.026Z,4.15
2018-09-28T20:41:22.778Z,3.52
2018-09-28T20:43:51.586Z,3.30
2018-09-28T20:46:20.317Z,4.15
2018-09-28T20:48:49.172Z,2.70
2018-09-28T20:51:18.060Z,3.67
2018-09-28T20:53:46.866Z,3.83
2018-09-28T20:56:15.596Z,3.60
2018-09-28T20:58:44.317Z,3.60
2018-09-28T21:01:13.166Z,4.17
2018-09-28T21:03:41.890Z,3.40
2018-09-28T21:06:10.577Z,3.42
2018-09-28T21:08:39.323Z,2.95
2018-09-28T21:11:08.049Z,3.25
2018-09-28T21:13:36.852Z,3.70
2018-09-28T21:16:05.645Z,3.45
2018-09-28T21:18:34.352Z,3.12
2018-09-28T21:21:03.154Z,3.05
2018-09-28T21:23:31.989Z,3.70
2018-09-28T21:26:00.833Z,3.95
2018-09-28T21:28:29.637Z,2.95
2018-09-28T21:30:58.449Z,3.00
2018-09-28T21:33:27.305Z,3.83
2018-09-28T21:35:56.222Z,3.00
2018-09-28T21:38:25.050Z,3.60
2018-09-28T21:40:53.837Z,3.40
2018-09-28T21:43:22.518Z,3.58
2018-09-28T21:45:51.274Z,2.75
2018-09-28T21:48:19.997Z,3.50
2018-09-28T21:50:48.729Z,3.50
2018-09-28T21:53:17.484Z,3.33
2018-09-28T21:55:46.239Z,3.00
2018-09-28T21:58:15.001Z,2.50
2018-09-28T22:00:43.766Z,3.22
2018-09-28T22:03:12.456Z,3.30
2018-09-28T22:05:41.108Z,2.72
2018-09-28T22:08:10.036Z,2.85
2018-09-28T22:10:38.722Z,3.52
2018-09-28T22:13:07.429Z,4.20
2018-09-28T22:15:36.143Z,2.70
2018-09-28T22:18:05.031Z,2.77
2018-09-28T22:20:33.769Z,3.17
2018-09-28T22:23:02.553Z,3.60
2018-09-28T22:25:31.291Z,3.25
2018-09-28T22:28:00.009Z,3.87
2018-09-28T22:30:28.894Z,3.35
2018-09-28T22:32:57.965Z,2.85
2018-09-28T22:35:26.878Z,2.85
2018-09-28T22:37:55.605Z,3.27
2018-09-28T22:40:24.420Z,3.50
2018-09-28T22:42:53.155Z,2.45
2018-09-28T22:45:22.012Z,2.87
2018-09-28T22:47:50.779Z,2.67
2018-09-28T22:50:19.528Z,3.30
2018-09-28T22:52:48.338Z,3.25
2018-09-28T22:55:17.059Z,3.27
2018-09-28T22:57:45.885Z,2.70
2018-09-28T23:00:14.631Z,3.00
2018-09-28T23:02:43.357Z,3.12
2018-09-28T23:05:12.122Z,3.55
2018-09-28T23:07:40.897Z,2.90
2018-09-28T23:10:09.582Z,3.00
2018-09-28T23:12:38.295Z,3.92
2018-09-28T23:15:07.117Z,3.40
2018-09-28T23:17:35.820Z,2.65
2018-09-28T23:20:04.691Z,3.12
2018-09-28T23:22:33.457Z,2.70
2018-09-28T23:25:02.202Z,2.85
2018-09-28T23:27:30.918Z,2.77
2018-09-28T23:29:59.613Z,2.70
2018-09-28T23:32:28.340Z,3.35
2018-09-28T23:34:57.137Z,2.80
2018-09-28T23:37:25.841Z,3.25
2018-09-28T23:39:54.645Z,2.40
2018-09-28T23:42:23.416Z,2.50
2018-09-28T23:44:52.128Z,2.70
2018-09-28T23:47:20.942Z,2.52
2018-09-28T23:49:49.660Z,2.87
2018-09-28T23:52:18.392Z,2.75
2018-09-28T23:54:47.121Z,2.42
2018-09-28T23:57:15.883Z,2.83
2018-09-28T23:59:44.645Z,2.85
